Time;durP1;ratioP1;P1;durP2;ratioP2;P2;SDS_P1;SDS_P2;PMS_P1;PMS_P2;Temp;Humidity;BMP_temperature;BMP_pressure;BME280_temperature;BME280_humidity;BME280_pressure;Samples;Min_cycle;Max_cycle;Signal;HPM_P1;HPM_P2
2023/02/25 00:01:22;;;;;;;18.42;2.88;;;5.20;99.90;;;;;;5058392;28;20089;-91
2023/02/25 00:03:54;;;;;;;17.33;2.70;;;5.20;99.90;;;;;;5058082;28;20125;-90
2023/02/25 00:06:20;;;;;;;15.75;3.00;;;5.20;99.90;;;;;;5041332;28;20032;-91
2023/02/25 00:08:53;;;;;;;17.70;2.88;;;5.20;99.90;;;;;;5057844;28;20039;-91
2023/02/25 00:11:20;;;;;;;20.88;3.55;;;5.20;99.90;;;;;;5058037;28;20020;-91
2023/02/25 00:16:57;;;;;;;18.80;3.10;;;5.10;99.90;;;;;;5059369;28;20037;-90
2023/02/25 00:19:27;;;;;;;23.70;3.75;;;5.20;99.90;;;;;;5057722;28;20028;-90
2023/02/25 00:21:53;;;;;;;18.40;3.03;;;5.20;99.90;;;;;;5057835;28;20035;-91
2023/02/25 00:24:19;;;;;;;18.27;2.85;;;5.20;99.90;;;;;;5059752;28;20263;-91
2023/02/25 00:26:44;;;;;;;16.17;3.00;;;5.10;99.90;;;;;;5063168;28;20004;-91
2023/02/25 00:29:10;;;;;;;19.88;2.90;;;5.10;99.90;;;;;;5097714;28;20032;-92
2023/02/25 00:31:36;;;;;;;20.02;3.47;;;5.10;99.90;;;;;;5064412;28;20036;-91
2023/02/25 00:34:02;;;;;;;22.13;2.72;;;5.10;99.90;;;;;;5080329;28;20016;-91
2023/02/25 00:36:27;;;;;;;15.57;3.25;;;5.10;99.90;;;;;;5061480;28;20035;-94
2023/02/25 00:38:55;;;;;;;19.70;2.70;;;5.10;99.90;;;;;;5078386;28;20024;-90
2023/02/25 00:41:25;;;;;;;23.02;3.10;;;5.10;99.90;;;;;;5072122;28;20028;-91
2023/02/25 00:43:55;;;;;;;21.60;3.00;;;5.10;99.90;;;;;;5062660;28;20021;-91
2023/02/25 00:46:22;;;;;;;20.60;3.40;;;5.10;99.90;;;;;;5059692;28;20107;-90
2023/02/25 00:48:48;;;;;;;21.08;3.30;;;5.10;99.90;;;;;;5057977;28;20024;-90
2023/02/25 00:51:17;;;;;;;15.55;2.92;;;5.00;99.90;;;;;;5041775;28;20032;-90
2023/02/25 00:53:45;;;;;;;19.50;3.00;;;5.10;99.90;;;;;;5057069;28;20025;-90
2023/02/25 00:56:16;;;;;;;18.73;2.63;;;5.10;99.90;;;;;;5058037;28;20020;-90
2023/02/25 00:58:43;;;;;;;13.05;2.65;;;5.10;99.90;;;;;;5057234;28;20032;-90
2023/02/25 01:01:21;;;;;;;21.15;3.15;;;5.10;99.90;;;;;;5057570;28;20059;-91
2023/02/25 01:03:49;;;;;;;23.38;3.33;;;5.10;99.90;;;;;;5056344;28;20143;-90
2023/02/25 01:06:15;;;;;;;19.35;3.15;;;5.10;99.90;;;;;;5057414;28;20027;-91
2023/02/25 01:08:41;;;;;;;21.25;3.35;;;5.10;99.90;;;;;;5040113;28;20036;-90
2023/02/25 01:11:11;;;;;;;25.30;3.22;;;5.10;99.90;;;;;;5056683;28;20380;-90
2023/02/25 01:13:39;;;;;;;17.90;2.73;;;5.00;99.90;;;;;;5073671;28;20020;-90
2023/02/25 01:16:18;;;;;;;20.58;2.58;;;5.00;99.90;;;;;;5057190;28;20025;-91
2023/02/25 01:18:45;;;;;;;13.95;2.30;;;5.00;99.90;;;;;;5055924;28;20117;-91
2023/02/25 01:21:24;;;;;;;22.13;2.53;;;5.00;99.90;;;;;;5057152;28;20468;-90
2023/02/25 01:23:58;;;;;;;19.25;2.72;;;5.00;99.90;;;;;;5073874;28;20028;-91
2023/02/25 01:26:25;;;;;;;17.70;2.17;;;5.00;99.90;;;;;;5056810;28;20036;-91
2023/02/25 01:28:51;;;;;;;20.98;3.00;;;5.00;99.90;;;;;;5040117;28;20020;-91
2023/02/25 01:31:26;;;;;;;20.95;2.67;;;5.00;99.90;;;;;;5057049;28;20364;-90
2023/02/25 01:33:57;;;;;;;21.98;2.25;;;5.00;99.90;;;;;;5056775;28;20060;-91
2023/02/25 01:36:24;;;;;;;12.35;1.85;;;5.00;99.90;;;;;;5057300;28;20025;-90
2023/02/25 01:38:50;;;;;;;21.33;2.33;;;5.00;99.90;;;;;;5056807;28;20070;-90
2023/02/25 01:41:15;;;;;;;19.33;2.78;;;5.00;99.90;;;;;;5057216;28;20040;-90
2023/02/25 01:43:41;;;;;;;19.65;2.40;;;5.00;99.90;;;;;;5056680;28;20027;-90
2023/02/25 01:46:07;;;;;;;16.45;2.20;;;5.00;99.90;;;;;;5056420;28;20037;-91
2023/02/25 01:48:41;;;;;;;14.02;2.75;;;5.00;99.90;;;;;;5039731;28;20119;-90
2023/02/25 01:51:11;;;;;;;21.02;2.83;;;5.00;99.90;;;;;;5057036;28;20376;-91
2023/02/25 01:53:45;;;;;;;16.23;3.40;;;5.00;99.90;;;;;;5057110;28;20035;-91
2023/02/25 01:56:16;;;;;;;15.55;2.47;;;5.00;99.90;;;;;;5057248;28;20025;-91
2023/02/25 01:58:46;;;;;;;12.80;1.92;;;4.90;99.90;;;;;;5055939;28;20020;-90
2023/02/25 02:01:17;;;;;;;12.47;2.33;;;4.90;99.90;;;;;;5060563;28;20081;-91
2023/02/25 02:03:44;;;;;;;15.85;1.80;;;4.90;99.90;;;;;;5056453;28;20040;-90
2023/02/25 02:06:26;;;;;;;14.40;2.78;;;4.90;99.90;;;;;;5073534;28;20052;-91
2023/02/25 02:08:53;;;;;;;18.00;2.15;;;4.90;99.90;;;;;;5074117;28;20021;-91
2023/02/25 02:11:18;;;;;;;15.43;2.70;;;4.90;99.90;;;;;;5039898;28;20074;-91
2023/02/25 02:13:50;;;;;;;13.93;2.47;;;4.90;99.90;;;;;;5039575;28;20029;-90
2023/02/25 02:16:46;;;;;;;13.60;2.10;;;4.90;99.90;;;;;;5039767;28;20024;-90
2023/02/25 02:19:21;;;;;;;10.95;1.67;;;4.90;99.90;;;;;;5056555;28;20035;-91
2023/02/25 02:22:13;;;;;;;13.85;2.20;;;4.90;99.90;;;;;;5074109;28;20021;-91
2023/02/25 02:25:04;;;;;;;15.23;2.20;;;5.00;99.90;;;;;;5056346;28;20044;-90
2023/02/25 02:27:57;;;;;;;20.77;2.63;;;5.00;99.90;;;;;;5052996;28;20064;-90
2023/02/25 02:30:41;;;;;;;11.25;1.92;;;5.00;99.90;;;;;;5076258;28;20024;-90
2023/02/25 02:33:44;;;;;;;16.95;2.50;;;5.00;99.90;;;;;;5059548;28;20024;-91
2023/02/25 02:36:38;;;;;;;15.45;2.75;;;5.00;99.90;;;;;;5060180;28;20024;-91
2023/02/25 02:39:17;;;;;;;17.58;2.63;;;5.00;99.90;;;;;;5038061;28;20037;-91
2023/02/25 02:41:56;;;;;;;13.65;2.30;;;5.00;99.90;;;;;;5076170;28;20112;-91
2023/02/25 02:45:05;;;;;;;16.83;2.13;;;5.00;99.90;;;;;;5059495;28;20025;-90
2023/02/25 02:47:39;;;;;;;17.60;2.35;;;5.00;99.90;;;;;;5059227;28;20060;-90
2023/02/25 02:50:20;;;;;;;19.38;2.65;;;5.00;99.90;;;;;;5060193;28;20056;-92
2023/02/25 02:52:51;;;;;;;16.92;2.35;;;5.00;99.90;;;;;;5059608;28;20023;-90
2023/02/25 02:55:25;;;;;;;15.60;2.70;;;5.00;99.90;;;;;;5059330;28;20020;-90
2023/02/25 02:57:59;;;;;;;15.68;2.40;;;5.00;99.90;;;;;;5059575;28;20032;-91
2023/02/25 03:00:34;;;;;;;12.82;2.17;;;5.10;99.90;;;;;;5059517;28;20036;-90
2023/02/25 03:03:11;;;;;;;13.88;2.70;;;5.00;99.90;;;;;;5075988;28;20111;-91
2023/02/25 03:05:40;;;;;;;18.45;2.88;;;5.00;99.90;;;;;;5059606;28;20111;-91
2023/02/25 03:08:16;;;;;;;17.58;2.47;;;5.10;99.90;;;;;;5059579;28;20115;-91
2023/02/25 03:10:41;;;;;;;15.25;2.33;;;5.10;99.90;;;;;;5059542;28;20032;-91
2023/02/25 03:13:07;;;;;;;15.27;2.65;;;5.10;99.90;;;;;;5059390;28;20016;-91
2023/02/25 03:15:36;;;;;;;16.67;2.65;;;5.10;99.90;;;;;;5059213;28;20559;-90
2023/02/25 03:18:06;;;;;;;22.10;3.00;;;5.10;99.90;;;;;;5043016;28;20040;-90
2023/02/25 03:20:40;;;;;;;23.17;3.08;;;5.10;99.90;;;;;;5076427;28;20036;-91
2023/02/25 03:23:11;;;;;;;18.10;2.70;;;5.10;99.90;;;;;;5059232;28;20031;-90
2023/02/25 03:25:45;;;;;;;22.58;2.88;;;5.10;99.90;;;;;;5058960;28;20020;-90
2023/02/25 03:28:44;;;;;;;18.88;2.75;;;5.10;99.90;;;;;;5075613;28;20012;-89
2023/02/25 03:31:22;;;;;;;16.27;2.63;;;5.10;99.90;;;;;;5026132;28;20178;-90
2023/02/25 03:33:55;;;;;;;22.65;4.85;;;5.10;99.90;;;;;;5075299;28;20033;-90
2023/02/25 03:36:32;;;;;;;20.55;2.95;;;5.10;99.90;;;;;;5076539;28;20520;-90
2023/02/25 03:39:20;;;;;;;23.75;3.78;;;5.10;99.90;;;;;;5064464;28;20032;-91
2023/02/25 03:41:51;;;;;;;23.42;3.25;;;5.10;99.90;;;;;;5075702;28;20074;-90
2023/02/25 03:44:22;;;;;;;14.07;2.50;;;5.10;99.90;;;;;;5081101;28;20100;-90
2023/02/25 03:46:48;;;;;;;21.55;3.08;;;5.10;99.90;;;;;;5082341;28;20016;-90
2023/02/25 03:49:20;;;;;;;24.15;2.95;;;5.10;99.90;;;;;;5065052;28;20040;-90
2023/02/25 03:51:48;;;;;;;21.08;3.20;;;5.10;99.90;;;;;;5096398;28;20068;-90
2023/02/25 03:54:17;;;;;;;17.23;2.58;;;5.10;99.90;;;;;;5061998;28;20042;-90
2023/02/25 03:56:48;;;;;;;19.08;2.40;;;5.10;99.90;;;;;;5059633;28;20036;-90
2023/02/25 03:59:15;;;;;;;25.77;4.65;;;5.10;99.90;;;;;;5061072;28;20028;-90
2023/02/25 04:01:43;;;;;;;17.00;2.95;;;5.10;99.90;;;;;;5058375;28;20024;-91
2023/02/25 04:04:09;;;;;;;16.67;2.58;;;5.10;99.90;;;;;;5059186;28;20063;-91
2023/02/25 04:06:35;;;;;;;26.23;3.28;;;5.10;99.90;;;;;;5065231;28;20456;-91
2023/02/25 04:09:01;;;;;;;20.83;3.08;;;5.10;99.90;;;;;;5076456;28;20021;-91
2023/02/25 04:11:26;;;;;;;21.20;2.35;;;5.10;99.90;;;;;;5058024;28;20051;-90
2023/02/25 04:13:53;;;;;;;27.13;2.97;;;5.10;99.90;;;;;;5058161;28;20115;-92
2023/02/25 04:16:19;;;;;;;21.70;3.58;;;5.10;99.90;;;;;;5058159;28;20105;-91
2023/02/25 04:18:45;;;;;;;19.88;3.67;;;5.10;99.90;;;;;;5057963;28;20025;-90
2023/02/25 04:21:30;;;;;;;22.52;3.88;;;5.10;99.90;;;;;;5040718;28;20035;-90
2023/02/25 04:23:57;;;;;;;17.92;2.95;;;5.10;99.90;;;;;;5057864;28;20028;-90
2023/02/25 04:26:23;;;;;;;18.65;2.45;;;5.00;99.90;;;;;;5057827;28;20070;-90
2023/02/25 04:28:49;;;;;;;18.50;2.97;;;5.00;99.90;;;;;;5040512;28;20093;-90
2023/02/25 04:31:15;;;;;;;25.70;2.80;;;5.00;99.90;;;;;;5040357;28;20064;-91
2023/02/25 04:33:41;;;;;;;17.67;2.75;;;5.00;99.90;;;;;;5057482;28;20035;-90
2023/02/25 04:36:21;;;;;;;18.70;2.20;;;5.00;99.90;;;;;;5024444;28;20025;-90
2023/02/25 04:38:47;;;;;;;18.35;2.80;;;5.00;99.90;;;;;;5057571;28;20024;-90
2023/02/25 04:41:13;;;;;;;20.63;2.83;;;5.00;99.90;;;;;;5040944;28;20029;-90
2023/02/25 04:43:38;;;;;;;18.88;3.03;;;5.00;99.90;;;;;;5040633;28;20021;-90
2023/02/25 04:46:04;;;;;;;21.95;4.13;;;5.00;99.90;;;;;;5040671;28;20032;-90
2023/02/25 04:48:30;;;;;;;30.45;3.97;;;4.90;99.90;;;;;;5057272;28;20024;-90
2023/02/25 04:51:00;;;;;;;21.60;2.40;;;4.90;99.90;;;;;;5057244;28;20452;-92
2023/02/25 04:53:26;;;;;;;20.33;2.88;;;4.90;99.90;;;;;;5056201;28;20035;-90
2023/02/25 04:55:52;;;;;;;23.58;3.45;;;4.90;99.90;;;;;;5040502;28;20040;-90
2023/02/25 04:58:19;;;;;;;18.13;2.85;;;4.90;99.90;;;;;;5056991;28;20032;-90
2023/02/25 05:00:47;;;;;;;27.88;4.90;;;4.90;99.90;;;;;;5057155;28;20025;-90
2023/02/25 05:03:14;;;;;;;15.77;2.95;;;4.90;99.90;;;;;;5057059;28;20086;-90
2023/02/25 05:05:40;;;;;;;19.88;3.20;;;4.90;99.90;;;;;;5056854;28;20056;-90
2023/02/25 05:08:06;;;;;;;14.63;3.00;;;4.90;99.90;;;;;;5056856;28;20032;-90
2023/02/25 05:10:32;;;;;;;15.70;2.75;;;4.90;99.90;;;;;;5056509;28;20044;-90
2023/02/25 05:12:57;;;;;;;21.92;3.17;;;4.90;99.90;;;;;;5040862;28;20020;-90
2023/02/25 05:15:24;;;;;;;15.60;2.40;;;4.90;99.90;;;;;;5056985;28;20426;-90
2023/02/25 05:17:50;;;;;;;19.65;4.18;;;4.90;99.90;;;;;;5041076;28;20031;-90
2023/02/25 05:20:16;;;;;;;22.38;2.97;;;4.90;99.90;;;;;;5075414;28;20387;-90
2023/02/25 05:22:41;;;;;;;22.85;3.28;;;4.90;99.90;;;;;;5057328;28;20041;-89
2023/02/25 05:25:08;;;;;;;28.17;4.13;;;4.90;99.90;;;;;;5057502;28;20503;-90
2023/02/25 05:27:34;;;;;;;21.70;3.85;;;4.90;99.90;;;;;;5023995;28;20029;-91
2023/02/25 05:30:00;;;;;;;26.92;4.57;;;4.90;99.90;;;;;;5056964;28;20031;-90
2023/02/25 05:32:26;;;;;;;28.30;3.40;;;4.90;99.90;;;;;;5074518;28;20051;-90
2023/02/25 05:34:52;;;;;;;20.50;2.90;;;4.90;99.90;;;;;;5057266;28;20027;-91
2023/02/25 05:37:17;;;;;;;17.33;2.90;;;4.90;99.90;;;;;;5057180;28;20104;-90
2023/02/25 05:39:43;;;;;;;22.80;3.65;;;4.90;99.90;;;;;;5040473;28;20047;-89
2023/02/25 05:42:10;;;;;;;19.40;3.55;;;4.90;99.90;;;;;;5053389;28;20123;-87
2023/02/25 05:44:36;;;;;;;21.55;4.13;;;4.90;99.90;;;;;;5095439;28;20025;-90
2023/02/25 05:47:07;;;;;;;18.77;2.58;;;4.90;99.90;;;;;;5060470;28;20031;-90
2023/02/25 05:49:33;;;;;;;19.27;2.72;;;4.80;99.90;;;;;;5077386;28;20024;-90
2023/02/25 05:51:58;;;;;;;27.25;3.42;;;4.80;99.90;;;;;;5076631;28;20081;-90
2023/02/25 05:54:24;;;;;;;13.20;2.13;;;4.80;99.90;;;;;;5060745;28;20053;-89
2023/02/25 05:56:51;;;;;;;23.75;3.10;;;4.80;99.90;;;;;;5060405;28;20020;-90
2023/02/25 05:59:17;;;;;;;16.65;2.15;;;4.80;99.90;;;;;;5076484;28;20021;-90
2023/02/25 06:01:43;;;;;;;18.17;2.50;;;4.90;99.90;;;;;;5063136;28;20024;-90
2023/02/25 06:04:09;;;;;;;17.35;2.40;;;4.80;99.90;;;;;;5078556;28;20117;-90
2023/02/25 06:06:35;;;;;;;15.38;2.55;;;4.90;99.90;;;;;;5064553;28;20051;-91
2023/02/25 06:09:01;;;;;;;19.58;3.03;;;4.80;99.90;;;;;;5063932;28;20077;-90
2023/02/25 06:11:29;;;;;;;24.35;3.08;;;4.80;99.90;;;;;;5064206;28;20024;-90
2023/02/25 06:13:56;;;;;;;16.13;3.08;;;4.90;99.90;;;;;;5091756;28;20032;-90
2023/02/25 06:16:24;;;;;;;23.73;3.67;;;4.90;99.90;;;;;;5082342;28;20028;-91
2023/02/25 06:18:53;;;;;;;14.88;2.13;;;4.90;99.90;;;;;;5063735;28;20020;-90
2023/02/25 06:21:18;;;;;;;17.10;2.50;;;4.90;99.90;;;;;;5080167;28;20032;-90
2023/02/25 06:23:44;;;;;;;14.98;2.30;;;4.90;99.90;;;;;;5063420;28;20090;-90
2023/02/25 06:26:12;;;;;;;14.15;3.03;;;4.90;99.90;;;;;;5079797;28;20034;-90
2023/02/25 06:28:38;;;;;;;20.20;3.28;;;4.90;99.90;;;;;;5097807;28;20028;-90
2023/02/25 06:31:16;;;;;;;14.75;3.17;;;4.90;99.90;;;;;;5063114;28;20032;-90
2023/02/25 06:33:41;;;;;;;15.82;2.78;;;4.90;99.90;;;;;;5080060;28;20051;-90
2023/02/25 06:36:08;;;;;;;17.02;3.47;;;4.90;99.90;;;;;;5079203;28;20020;-90
2023/02/25 06:38:34;;;;;;;16.08;2.42;;;4.90;99.90;;;;;;5063164;28;20032;-90
2023/02/25 06:41:05;;;;;;;15.10;3.35;;;4.80;99.90;;;;;;5079719;28;20490;-90
2023/02/25 06:43:31;;;;;;;15.30;1.83;;;4.80;99.90;;;;;;5063399;28;20031;-90
2023/02/25 06:45:56;;;;;;;12.48;2.72;;;4.80;99.90;;;;;;5079831;28;20020;-90
2023/02/25 06:48:22;;;;;;;17.05;2.58;;;4.80;99.90;;;;;;5059000;28;20018;-90
2023/02/25 06:50:51;;;;;;;19.73;3.95;;;4.90;99.90;;;;;;5043453;28;20077;-90
2023/02/25 06:53:19;;;;;;;19.23;2.80;;;4.80;99.90;;;;;;5093384;28;20024;-90
2023/02/25 06:55:45;;;;;;;10.85;2.20;;;4.80;99.90;;;;;;5060693;28;20101;-90
2023/02/25 06:58:10;;;;;;;14.80;2.33;;;4.80;99.90;;;;;;5070557;28;20020;-95
2023/02/25 07:00:36;;;;;;;19.38;3.10;;;4.90;99.90;;;;;;5098582;28;20044;-89
2023/02/25 07:03:27;;;;;;;15.38;2.33;;;4.80;99.90;;;;;;5132929;27;20306;-89
2023/02/25 07:05:53;;;;;;;19.60;2.35;;;4.80;99.90;;;;;;5094585;28;20115;-86
2023/02/25 07:08:28;;;;;;;14.55;1.98;;;4.80;99.90;;;;;;5094704;28;20363;-86
2023/02/25 07:10:53;;;;;;;13.63;2.03;;;4.80;99.90;;;;;;5093900;28;20094;-87
2023/02/25 07:13:23;;;;;;;20.40;2.97;;;4.80;99.90;;;;;;5094132;28;20472;-87
2023/02/25 07:15:49;;;;;;;25.33;5.82;;;4.80;99.90;;;;;;5093675;28;20031;-87
2023/02/25 07:18:21;;;;;;;13.98;2.75;;;4.80;99.90;;;;;;5077751;28;20384;-86
2023/02/25 07:20:47;;;;;;;19.50;3.15;;;4.80;99.90;;;;;;5076995;28;20089;-87
2023/02/25 07:23:16;;;;;;;19.02;2.70;;;4.80;99.90;;;;;;5077046;28;20036;-85
2023/02/25 07:25:42;;;;;;;21.13;2.70;;;4.80;99.90;;;;;;5093250;28;20472;-86
2023/02/25 07:28:11;;;;;;;27.10;2.97;;;4.90;99.90;;;;;;5093537;28;20031;-86
2023/02/25 07:30:37;;;;;;;21.40;3.22;;;4.90;99.90;;;;;;5093270;28;20134;-85
2023/02/25 07:33:09;;;;;;;15.60;2.30;;;4.90;99.90;;;;;;5093604;28;20071;-87
2023/02/25 07:35:35;;;;;;;22.25;2.90;;;4.90;99.90;;;;;;5111007;28;20555;-87
2023/02/25 07:38:00;;;;;;;29.13;3.20;;;4.90;99.90;;;;;;5093667;28;20077;-89
2023/02/25 07:40:28;;;;;;;23.98;2.85;;;4.90;99.90;;;;;;5093724;28;20500;-89
2023/02/25 07:43:00;;;;;;;17.10;2.67;;;4.90;99.90;;;;;;5093891;28;20032;-89
2023/02/25 07:45:26;;;;;;;22.90;2.85;;;4.90;99.90;;;;;;5110558;28;20106;-89
2023/02/25 07:47:55;;;;;;;17.42;3.10;;;4.90;99.90;;;;;;5093902;28;20555;-89
2023/02/25 07:50:21;;;;;;;21.95;3.13;;;4.90;99.90;;;;;;5093623;28;20085;-89
2023/02/25 07:52:53;;;;;;;16.77;2.67;;;5.00;99.90;;;;;;5093764;28;20365;-89
2023/02/25 07:55:21;;;;;;;17.08;3.00;;;5.00;99.90;;;;;;5104170;28;20012;-88
2023/02/25 07:57:47;;;;;;;19.10;2.85;;;5.00;99.90;;;;;;5134491;28;20027;-88
2023/02/25 08:00:14;;;;;;;20.83;3.25;;;5.00;99.90;;;;;;5117504;28;20091;-88
2023/02/25 08:02:41;;;;;;;21.55;2.45;;;5.00;99.90;;;;;;5129485;28;20044;-88
2023/02/25 08:05:11;;;;;;;19.73;3.58;;;5.00;99.90;;;;;;5128026;28;20095;-89
2023/02/25 08:07:40;;;;;;;13.85;2.72;;;5.10;99.90;;;;;;5093577;28;20051;-89
2023/02/25 08:10:06;;;;;;;14.95;2.50;;;5.10;99.90;;;;;;5114502;28;20088;-88
2023/02/25 08:12:37;;;;;;;15.98;3.40;;;5.10;99.90;;;;;;5099827;28;20035;-88
2023/02/25 08:15:04;;;;;;;20.52;3.47;;;5.20;99.90;;;;;;5097044;28;20059;-88
2023/02/25 08:17:36;;;;;;;17.00;3.10;;;5.20;99.90;;;;;;5079638;28;20032;-89
2023/02/25 08:20:02;;;;;;;18.40;2.35;;;5.20;99.90;;;;;;5097613;28;20028;-89
2023/02/25 08:22:37;;;;;;;23.10;2.88;;;5.20;99.90;;;;;;5079643;28;20040;-89
2023/02/25 08:25:03;;;;;;;21.77;4.15;;;5.20;99.90;;;;;;5064502;28;20016;-89
2023/02/25 08:27:29;;;;;;;16.17;3.30;;;5.30;99.90;;;;;;5080381;28;20024;-89
2023/02/25 08:33:27;;;;;;;19.98;2.88;;;5.30;99.90;;;;;;5097279;28;20031;-87
2023/02/25 08:35:53;;;;;;;15.90;2.42;;;5.40;99.90;;;;;;5095400;28;20082;-87
2023/02/25 08:38:19;;;;;;;18.17;2.72;;;5.40;99.90;;;;;;5079160;28;20020;-86
2023/02/25 08:40:45;;;;;;;18.38;2.33;;;5.40;99.90;;;;;;5078525;28;20123;-87
2023/02/25 08:43:11;;;;;;;18.92;2.33;;;5.40;99.90;;;;;;5062739;28;20114;-89
2023/02/25 08:45:40;;;;;;;14.02;3.10;;;5.50;99.90;;;;;;5079279;28;20476;-88
2023/02/25 08:48:09;;;;;;;14.05;2.00;;;5.50;99.90;;;;;;5095538;28;20016;-88
2023/02/25 08:57:32;;;;;;;10.88;2.10;;;5.60;99.90;;;;;;5096853;28;20084;-88
2023/02/25 08:59:57;;;;;;;13.32;1.90;;;5.60;99.90;;;;;;5095629;28;20028;-88
2023/02/25 09:02:30;;;;;;;8.45;1.60;;;5.60;99.90;;;;;;5094544;28;20040;-87
2023/02/25 09:04:56;;;;;;;18.80;2.13;;;5.60;99.90;;;;;;5078745;28;20121;-87
2023/02/25 09:07:22;;;;;;;12.13;1.92;;;5.70;99.90;;;;;;5078170;28;20028;-87
2023/02/25 09:09:48;;;;;;;7.25;1.33;;;5.70;99.90;;;;;;5095493;28;20024;-86
2023/02/25 09:12:17;;;;;;;9.57;1.58;;;5.70;99.90;;;;;;5077855;28;20028;-87
2023/02/25 09:20:41;;;;;;;7.93;1.10;;;5.80;99.90;;;;;;5048866;28;20046;-90
2023/02/25 09:23:10;;;;;;;9.95;1.30;;;5.80;99.90;;;;;;5020063;28;20091;-90
2023/02/25 09:25:37;;;;;;;7.97;1.17;;;5.80;99.90;;;;;;5017702;28;20067;-87
2023/02/25 09:28:08;;;;;;;8.43;1.13;;;5.90;99.90;;;;;;5037577;28;20030;-90
2023/02/25 09:30:34;;;;;;;;;;;5.80;99.90;;;;;;5038028;28;20033;-88
2023/02/25 09:33:11;;;;;;;5.50;1.08;;;5.90;99.90;;;;;;5004231;28;19916;-89
2023/02/25 09:35:39;;;;;;;3.05;0.63;;;5.90;99.90;;;;;;5019093;28;20040;-88
2023/02/25 09:38:16;;;;;;;;;;;;;;;;;;;;;
2023/02/25 09:40:46;;;;;;;3.17;0.82;;;5.90;99.90;;;;;;5036649;28;20025;-88
2023/02/25 09:43:35;;;;;;;4.30;1.03;;;5.90;99.90;;;;;;5018347;28;20083;-88
2023/02/25 09:46:14;;;;;;;6.32;0.90;;;6.00;99.90;;;;;;5018789;28;20029;-88
2023/02/25 09:48:51;;;;;;;7.32;1.23;;;6.00;99.90;;;;;;5018053;28;20023;-86
2023/02/25 09:51:31;;;;;;;6.10;1.10;;;6.00;99.90;;;;;;5018905;28;20033;-89
2023/02/25 09:54:19;;;;;;;4.28;0.82;;;6.00;99.90;;;;;;5020061;28;20075;-88
2023/02/25 09:56:45;;;;;;;4.53;0.90;;;6.00;99.90;;;;;;5019088;28;20025;-88
2023/02/25 09:59:20;;;;;;;9.07;1.33;;;6.00;99.90;;;;;;5034937;28;20037;-89
2023/02/25 10:02:12;;;;;;;3.47;1.10;;;6.10;99.90;;;;;;5018648;28;20026;-89
2023/02/25 10:05:02;;;;;;;6.28;1.08;;;6.10;99.90;;;;;;5018192;28;20116;-88
2023/02/25 10:07:55;;;;;;;6.65;1.00;;;6.20;99.90;;;;;;5017910;28;20497;-89
2023/02/25 10:10:30;;;;;;;8.80;2.30;;;6.20;99.90;;;;;;5018257;28;20531;-89
2023/02/25 10:13:07;;;;;;;3.03;0.90;;;6.20;99.90;;;;;;5035710;28;20507;-88
2023/02/25 10:15:51;;;;;;;5.03;1.00;;;6.30;99.90;;;;;;5030685;28;20025;-90
2023/02/25 10:18:50;;;;;;;7.18;1.58;;;6.20;99.90;;;;;;5037937;28;20010;-89
2023/02/25 10:21:40;;;;;;;6.88;0.98;;;6.30;99.90;;;;;;5048579;28;20056;-88
2023/02/25 10:24:20;;;;;;;6.80;1.40;;;6.40;99.90;;;;;;5074081;28;20029;-89
2023/02/25 10:26:50;;;;;;;9.80;1.35;;;6.40;99.90;;;;;;5059532;28;20036;-88
2023/02/25 10:29:41;;;;;;;5.07;1.57;;;6.50;99.90;;;;;;5075747;28;20036;-89
2023/02/25 10:32:16;;;;;;;8.50;1.60;;;6.60;99.90;;;;;;5051218;28;20044;-88
2023/02/25 10:34:41;;;;;;;7.82;1.42;;;6.70;99.90;;;;;;5055357;28;20083;-88
2023/02/25 10:37:16;;;;;;;10.50;1.40;;;6.70;99.90;;;;;;5056347;28;20032;-88
2023/02/25 10:39:41;;;;;;;12.98;1.92;;;6.80;99.90;;;;;;5055082;28;20021;-88
2023/02/25 10:42:09;;;;;;;10.02;1.83;;;6.90;99.90;;;;;;5055578;28;20017;-89
2023/02/25 10:44:35;;;;;;;13.15;1.63;;;6.90;99.90;;;;;;5056075;28;20040;-93
2023/02/25 10:47:05;;;;;;;8.68;1.50;;;6.90;99.90;;;;;;5054579;28;20017;-89
2023/02/25 10:49:37;;;;;;;9.55;1.50;;;6.90;99.90;;;;;;5054629;28;20365;-89
2023/02/25 10:52:04;;;;;;;;;;;6.90;99.90;;;;;;5055917;28;20029;-91
2023/02/25 10:54:32;;;;;;;5.95;1.17;;;6.90;99.90;;;;;;5055384;28;20348;-89
2023/02/25 10:57:07;;;;;;;12.32;1.55;;;6.90;99.90;;;;;;5056630;28;20100;-89
2023/02/25 10:59:41;;;;;;;12.48;1.60;;;6.80;99.90;;;;;;5055098;28;20036;-90
2023/02/25 11:05:41;;;;;;;7.38;1.48;;;6.70;99.90;;;;;;5056658;28;20016;-87
2023/02/25 11:08:31;;;;;;;10.88;1.45;;;6.70;99.90;;;;;;5055120;28;20096;-88
2023/02/25 11:11:19;;;;;;;8.00;1.75;;;6.60;99.90;;;;;;5054624;28;20029;-90
2023/02/25 11:14:13;;;;;;;8.35;1.40;;;6.60;99.90;;;;;;5054713;28;20408;-90
2023/02/25 11:16:42;;;;;;;11.73;1.77;;;6.60;99.90;;;;;;5053260;28;20101;-94
2023/02/25 11:19:19;;;;;;;12.80;1.50;;;6.50;99.90;;;;;;5054223;28;20017;-91
2023/02/25 11:21:45;;;;;;;5.65;1.58;;;6.50;99.90;;;;;;5053112;28;20045;-88
2023/02/25 11:24:18;;;;;;;10.63;1.88;;;6.50;99.90;;;;;;5052768;28;20068;-88
2023/02/25 11:26:48;;;;;;;10.43;1.67;;;6.50;99.90;;;;;;5053751;28;20055;-89
2023/02/25 11:29:17;;;;;;;9.40;1.30;;;6.50;99.90;;;;;;5054694;28;20021;-89
2023/02/25 11:31:47;;;;;;;4.60;1.05;;;6.60;99.90;;;;;;5054034;28;20029;-89
2023/02/25 11:34:37;;;;;;;6.47;1.30;;;6.70;99.90;;;;;;5056010;28;20024;-89
2023/02/25 11:37:24;;;;;;;7.82;1.70;;;6.80;99.90;;;;;;5054056;28;20028;-89
2023/02/25 11:39:55;;;;;;;11.13;1.70;;;6.90;99.90;;;;;;5054388;28;20029;-90
2023/02/25 11:42:25;;;;;;;9.35;1.80;;;6.90;99.90;;;;;;5055026;28;20037;-89
2023/02/25 11:44:59;;;;;;;7.35;1.40;;;7.00;99.90;;;;;;5054023;28;20096;-86
2023/02/25 11:47:26;;;;;;;9.18;1.45;;;7.10;99.90;;;;;;5053998;28;20021;-85
2023/02/25 11:50:07;;;;;;;8.13;1.70;;;7.20;99.90;;;;;;5055862;28;20058;-86
2023/02/25 11:53:00;;;;;;;8.88;1.40;;;7.30;99.90;;;;;;5058431;28;20388;-86
2023/02/25 11:55:52;;;;;;;12.25;1.80;;;7.40;99.90;;;;;;5057952;28;20033;-85
2023/02/25 11:58:39;;;;;;;9.95;1.70;;;7.50;99.90;;;;;;5056557;28;20017;-87
2023/02/25 12:01:11;;;;;;;9.07;1.52;;;7.60;99.90;;;;;;5056361;28;20466;-86
2023/02/25 12:04:07;;;;;;;9.30;1.40;;;7.70;99.90;;;;;;5056386;28;20025;-84
2023/02/25 12:06:56;;;;;;;7.05;1.98;;;7.70;99.90;;;;;;5056773;28;20115;-87
2023/02/25 12:09:47;;;;;;;9.98;1.98;;;7.80;99.90;;;;;;5056215;28;20071;-88
2023/02/25 12:13:01;;;;;;;7.68;1.55;;;7.90;99.90;;;;;;5056723;28;20037;-87
2023/02/25 12:15:53;;;;;;;8.68;1.63;;;7.90;99.90;;;;;;5056111;28;20016;-86
2023/02/25 12:18:25;;;;;;;9.50;1.45;;;7.90;99.90;;;;;;5056907;28;20093;-87
2023/02/25 12:21:18;;;;;;;9.23;1.70;;;7.90;99.90;;;;;;5056863;28;20032;-85
2023/02/25 12:24:22;;;;;;;6.88;1.20;;;8.00;99.90;;;;;;5057506;28;20029;-87
2023/02/25 12:27:06;;;;;;;11.07;2.28;;;8.10;99.90;;;;;;5053324;28;20045;-86
2023/02/25 12:29:50;;;;;;;8.63;1.33;;;8.10;99.90;;;;;;5056119;28;20037;-89
2023/02/25 12:32:25;;;;;;;12.10;1.73;;;8.10;99.90;;;;;;5061702;28;20099;-89
2023/02/25 12:35:14;;;;;;;8.05;1.30;;;8.20;99.90;;;;;;5074532;28;20059;-90
2023/02/25 12:37:45;;;;;;;7.18;1.40;;;8.20;99.90;;;;;;5056596;28;20029;-89
2023/02/25 12:40:34;;;;;;;13.75;1.52;;;8.30;99.90;;;;;;5056299;28;20438;-87
2023/02/25 12:43:44;;;;;;;10.77;2.65;;;8.30;99.90;;;;;;5027944;28;20037;-86
2023/02/25 12:46:20;;;;;;;10.63;1.63;;;8.40;99.90;;;;;;5040274;28;20036;-86
2023/02/25 12:49:06;;;;;;;8.07;1.63;;;8.40;99.90;;;;;;5055142;28;20424;-87
2023/02/25 12:52:12;;;;;;;14.40;3.92;;;8.40;99.90;;;;;;5055335;28;20370;-87
2023/02/25 12:55:07;;;;;;;8.57;1.42;;;8.40;99.90;;;;;;5037629;28;20033;-87
2023/02/25 12:57:54;;;;;;;10.27;2.10;;;8.40;99.90;;;;;;5054700;28;20028;-86
2023/02/25 13:00:38;;;;;;;8.77;2.08;;;8.40;99.90;;;;;;5054494;28;20029;-84
2023/02/25 13:03:24;;;;;;;9.57;1.80;;;8.40;99.90;;;;;;5054880;28;20025;-87
2023/02/25 13:06:04;;;;;;;6.95;1.90;;;8.50;99.90;;;;;;5054475;28;20079;-86
2023/02/25 13:09:03;;;;;;;7.75;1.65;;;8.60;99.90;;;;;;5055045;28;20090;-87
2023/02/25 13:11:54;;;;;;;9.98;1.73;;;8.60;99.90;;;;;;5055932;28;20056;-87
2023/02/25 13:14:32;;;;;;;5.82;1.42;;;8.70;99.90;;;;;;5054802;28;20027;-86
2023/02/25 13:17:31;;;;;;;5.45;1.63;;;8.60;99.90;;;;;;5054607;28;20414;-88
2023/02/25 13:20:21;;;;;;;5.82;1.30;;;8.60;99.90;;;;;;5055235;28;20025;-88
2023/02/25 13:23:02;;;;;;;7.90;1.50;;;8.70;99.90;;;;;;5056743;28;20040;-88
2023/02/25 13:25:36;;;;;;;12.55;1.73;;;8.80;99.90;;;;;;5055073;28;20049;-87
2023/02/25 13:28:23;;;;;;;8.30;1.50;;;8.80;99.90;;;;;;5055530;28;20032;-88
2023/02/25 13:30:56;;;;;;;5.93;1.50;;;8.90;99.90;;;;;;5073880;28;20015;-87
2023/02/25 13:33:47;;;;;;;8.15;1.60;;;9.00;99.90;;;;;;5078650;28;20009;-88
2023/02/25 13:36:25;;;;;;;7.63;1.67;;;9.00;99.90;;;;;;5078325;28;20043;-88
2023/02/25 13:39:12;;;;;;;11.48;1.95;;;9.00;99.90;;;;;;5074634;28;20033;-88
2023/02/25 13:42:05;;;;;;;5.65;1.17;;;9.10;99.90;;;;;;5076470;28;20040;-88
2023/02/25 13:44:50;;;;;;;5.28;1.45;;;9.10;99.90;;;;;;5076364;28;20025;-89